Impacts TAF Board INFO
FOR SITUATIONAL AWARENESS. NOT TO BE USED FOR FLIGHT PLANNING PURPOSES.
IDs:

KSLC - Salt Lake City Intl, UT, US

Issued at 1958 UTC 25 May 2017
Updated at 2000 UTC 25 May 2017
Potential Impact None Slight Moderate High
Time1954Z 25/20Z 25/21Z 25/22Z 25/23Z 26/00Z 26/01Z 26/02Z 26/03Z 26/04Z 26/05Z 26/06Z 26/07Z 26/08Z>>
Type OBS PRVL PRVL PRVL PRVL PRVL PRVL PRVL PRVL PRVL PRVL PRVL PRVL PRVL
VIS 10 >6 >6 >6 >6 >6 >6 >6 >6 >6 >6 >6 >6 >6
CIG 200 200 200 200 200 200 200 200 120 120 120 120 120 120
Cover BKN BKN BKN BKN BKN BKN BKN BKN BKN BKN BKN BKN BKN BKN
FltCat VFR VFR VFR VFR VFR VFR VFR VFR VFR VFR VFR VFR VFR VFR
WX -- -- -- -- -- -- -- -- -- -- -- -- -- --
WDir 350 340 340 340 340 340 340 340 160 160 160 160 160 160
WSpd 10 12 12 12 12 12 12 12 7 7 7 7 7 7
WGst -- -- -- -- -- -- -- -- -- -- -- -- -- --

Raw TAF
KSLC 251958Z 2520/2624 34012KT P6SM FEW080 SCT120 BKN200
  FM260300 16007KT P6SM SCT080 BKN120
  FM261500 32008KT P6SM VCSH SCT040 BKN080


Raw METAR
KSLC 251954Z 35010KT 10SM FEW080 SCT120 BKN200 19/M03 A2974 RMK AO2 SLP029 ACSL SW-W AND DSNT NE AND NW T01891028
KSLC 251854Z 34007KT 10SM FEW080 SCT090 BKN120 BKN200 18/M03 A2974 RMK AO2 SLP031 VIRGA SE AND DSNT E ACSL DSNT SW AND NW T01781028
KSLC 251754Z 28011KT 10SM FEW060 FEW085 BKN120 18/M02 A2974 RMK AO2 SLP028 VIRGA W-NW AND DSNT S-SW ACSL DSNT ALQDS 60000 T01831017 10189 20133 51009
KSLC 251654Z 28007KT 10SM FEW060 SCT080 BKN100 17/02 A2973 RMK AO2 SLP021 VIRGA DSNT NE-S TCU DSNT N T01670017

METAR Board
Radar Display
Forecast Discussion

FOR SITUATIONAL AWARENESS. NOT TO BE USED FOR FLIGHT PLANNING PURPOSES.

Page loaded:  20:00 UTC  |   01:00 PM Pacific  |   02:00 PM Mountain  |   03:00 PM Central  |   04:00 PM Eastern

 

ADVISORIES

FORECASTS

FORECASTS

OBSERVATIONS

USER TOOLS

ABOUT US